createdAt,value
2019-03-09T00:00:54.147Z,3.60
2019-03-09T00:03:22.627Z,2.43
2019-03-09T00:05:51.093Z,4.13
2019-03-09T00:08:19.646Z,2.50
2019-03-09T00:10:48.450Z,2.63
2019-03-09T00:13:16.972Z,3.03
2019-03-09T00:15:45.601Z,2.93
2019-03-09T00:18:14.095Z,2.80
2019-03-09T00:20:42.631Z,6.17
2019-03-09T00:23:21.441Z,3.43
2019-03-09T00:26:06.769Z,2.90
2019-03-09T00:28:48.935Z,3.07
2019-03-09T00:31:25.429Z,2.90
2019-03-09T00:33:54.059Z,2.73
2019-03-09T00:36:22.544Z,2.93
2019-03-09T00:38:51.185Z,4.03
2019-03-09T00:41:20.975Z,2.70
2019-03-09T00:43:50.669Z,2.77
2019-03-09T00:46:19.204Z,3.20
2019-03-09T00:48:47.661Z,3.30
2019-03-09T00:51:16.215Z,3.20
2019-03-09T00:53:44.667Z,2.33
2019-03-09T00:56:13.429Z,2.13
2019-03-09T00:58:41.895Z,3.20
2019-03-09T01:01:10.524Z,3.47
2019-03-09T01:03:39.042Z,3.43
2019-03-09T01:06:07.534Z,2.93
2019-03-09T01:08:36.021Z,2.20
2019-03-09T01:11:04.915Z,4.40
2019-03-09T01:13:33.364Z,2.10
2019-03-09T01:16:01.838Z,5.37
2019-03-09T01:18:30.363Z,2.13
2019-03-09T01:20:58.904Z,4.80
2019-03-09T01:23:27.398Z,3.00
2019-03-09T01:25:55.845Z,4.03
2019-03-09T01:28:24.320Z,2.97
2019-03-09T01:30:52.851Z,3.73
2019-03-09T01:33:21.321Z,2.27
2019-03-09T01:35:49.911Z,3.10
2019-03-09T01:38:18.389Z,3.67
2019-03-09T01:40:46.841Z,3.93
2019-03-09T01:43:15.321Z,2.73
2019-03-09T01:45:43.872Z,3.20
2019-03-09T01:48:12.326Z,2.70
2019-03-09T01:50:40.807Z,2.53
2019-03-09T01:53:09.325Z,2.37
2019-03-09T01:55:37.804Z,5.00
2019-03-09T01:58:06.333Z,3.67
2019-03-09T02:00:34.937Z,2.80
2019-03-09T02:03:03.386Z,2.27
2019-03-09T02:05:31.875Z,1.90
2019-03-09T02:08:00.399Z,1.93
2019-03-09T02:10:29.025Z,3.40
2019-03-09T02:12:57.509Z,3.30
2019-03-09T02:15:26.032Z,2.50
2019-03-09T02:17:54.813Z,2.70
2019-03-09T02:20:23.266Z,2.33
2019-03-09T02:22:51.817Z,4.20
2019-03-09T02:25:20.520Z,2.50
2019-03-09T02:27:48.990Z,2.03
2019-03-09T02:30:20.508Z,3.67
2019-03-09T02:32:48.999Z,3.50
2019-03-09T02:35:18.308Z,4.27
2019-03-09T02:37:46.937Z,3.27
2019-03-09T02:40:25.766Z,4.37
2019-03-09T02:42:54.232Z,2.13
2019-03-09T02:45:24.419Z,5.70
2019-03-09T02:47:52.872Z,4.70
2019-03-09T02:50:21.350Z,6.83
2019-03-09T02:52:49.879Z,3.93
2019-03-09T02:55:18.362Z,3.83
2019-03-09T02:57:46.822Z,4.03
2019-03-09T03:00:19.229Z,4.27
2019-03-09T03:03:01.295Z,6.20
2019-03-09T03:05:29.758Z,2.93
2019-03-09T03:07:58.224Z,2.53
2019-03-09T03:10:26.689Z,2.70
2019-03-09T03:12:55.225Z,4.60
2019-03-09T03:15:38.724Z,3.20
2019-03-09T03:18:07.194Z,3.30
2019-03-09T03:20:35.777Z,2.57
2019-03-09T03:23:04.355Z,2.00
2019-03-09T03:25:32.909Z,2.40
2019-03-09T03:28:01.444Z,3.00
2019-03-09T03:30:29.999Z,2.40
2019-03-09T03:32:59.629Z,2.30
2019-03-09T03:35:28.093Z,2.40
2019-03-09T03:37:56.630Z,2.40
2019-03-09T03:40:25.149Z,3.53
2019-03-09T03:42:53.632Z,1.60
2019-03-09T03:45:22.162Z,5.77
2019-03-09T03:47:50.659Z,3.67
2019-03-09T03:50:19.182Z,2.10
2019-03-09T03:52:47.726Z,1.70
2019-03-09T03:55:16.332Z,3.80
2019-03-09T03:57:44.893Z,2.83
2019-03-09T04:00:15.065Z,2.13
2019-03-09T04:02:43.832Z,2.80
2019-03-09T04:05:12.386Z,5.77
2019-03-09T04:07:41.156Z,2.30
2019-03-09T04:10:11.686Z,2.97
2019-03-09T04:12:41.058Z,1.90
2019-03-09T04:15:09.693Z,3.23
2019-03-09T04:17:38.345Z,3.17
2019-03-09T04:20:08.624Z,5.00
2019-03-09T04:22:37.230Z,3.07
2019-03-09T04:25:07.354Z,3.70
2019-03-09T04:27:35.882Z,1.53
2019-03-09T04:30:06.397Z,2.50
2019-03-09T04:32:34.853Z,4.47
2019-03-09T04:35:03.912Z,3.70
2019-03-09T04:37:32.375Z,2.27
2019-03-09T04:40:00.913Z,4.73
2019-03-09T04:42:32.354Z,2.07
2019-03-09T04:45:00.834Z,3.90
2019-03-09T04:47:29.291Z,2.93
2019-03-09T04:49:57.738Z,4.80
2019-03-09T04:52:26.218Z,3.27
2019-03-09T04:54:54.685Z,1.87
2019-03-09T04:57:23.228Z,2.37
2019-03-09T04:59:51.678Z,2.67
2019-03-09T05:02:20.148Z,3.50
2019-03-09T05:04:48.674Z,3.53
2019-03-09T05:07:20.263Z,2.30
2019-03-09T05:09:54.820Z,2.23
2019-03-09T05:12:23.296Z,6.33
2019-03-09T05:14:51.813Z,2.20
2019-03-09T05:17:20.280Z,5.47
2019-03-09T05:19:48.733Z,2.77
2019-03-09T05:22:17.216Z,4.57
2019-03-09T05:24:45.660Z,4.63
2019-03-09T05:27:14.215Z,2.73
2019-03-09T05:29:42.744Z,3.27
2019-03-09T05:32:11.199Z,4.37
2019-03-09T05:34:39.674Z,2.60
2019-03-09T05:37:08.140Z,3.37
2019-03-09T05:39:38.268Z,3.13
2019-03-09T05:42:06.893Z,3.23
2019-03-09T05:44:35.385Z,4.20
2019-03-09T05:47:03.830Z,3.90
2019-03-09T05:49:32.315Z,2.97
2019-03-09T05:52:22.065Z,3.93
2019-03-09T05:54:50.777Z,4.07
2019-03-09T05:57:19.258Z,2.30
2019-03-09T05:59:47.721Z,5.47
2019-03-09T06:02:16.260Z,4.00
2019-03-09T06:04:44.706Z,3.77
2019-03-09T06:07:13.215Z,4.97
2019-03-09T06:09:41.669Z,2.57
2019-03-09T06:12:10.131Z,4.40
2019-03-09T06:14:38.702Z,1.80
2019-03-09T06:17:07.493Z,4.17
2019-03-09T06:19:35.968Z,4.40
2019-03-09T06:22:04.579Z,2.37
2019-03-09T06:24:33.037Z,3.57
2019-03-09T06:27:01.521Z,4.70
2019-03-09T06:29:29.969Z,3.17
2019-03-09T06:32:33.076Z,1.90
2019-03-09T06:35:01.685Z,4.83
2019-03-09T06:37:31.817Z,2.00
2019-03-09T06:40:00.420Z,2.37
2019-03-09T06:42:38.068Z,3.13
2019-03-09T06:45:09.417Z,3.37
2019-03-09T06:47:38.077Z,2.50
2019-03-09T06:50:09.605Z,3.03
2019-03-09T06:52:38.069Z,1.90
2019-03-09T06:55:09.687Z,2.10
2019-03-09T06:57:38.209Z,3.10
2019-03-09T07:00:27.631Z,2.40
2019-03-09T07:02:56.159Z,2.63
2019-03-09T07:05:24.711Z,1.90
2019-03-09T07:07:53.185Z,1.87
2019-03-09T07:10:21.663Z,1.80
2019-03-09T07:12:50.122Z,2.60
2019-03-09T07:15:38.823Z,3.73
2019-03-09T07:18:09.887Z,2.07
2019-03-09T07:20:38.415Z,2.10
2019-03-09T07:23:06.905Z,2.23
2019-03-09T07:25:35.365Z,2.27
2019-03-09T07:28:09.357Z,2.10
2019-03-09T07:30:38.070Z,1.30
2019-03-09T07:33:06.594Z,2.00
2019-03-09T07:35:35.217Z,1.50
2019-03-09T07:38:03.679Z,1.70
2019-03-09T07:40:32.173Z,1.27
2019-03-09T07:43:00.626Z,2.30
2019-03-09T07:45:29.169Z,1.40
2019-03-09T07:47:57.617Z,1.53
2019-03-09T07:50:26.194Z,2.53
2019-03-09T07:52:54.651Z,1.40
2019-03-09T07:55:23.470Z,1.77
2019-03-09T07:57:52.026Z,2.33
2019-03-09T08:00:23.209Z,1.43
2019-03-09T08:02:51.679Z,1.47
2019-03-09T08:05:20.196Z,1.73
2019-03-09T08:07:48.671Z,0.90
2019-03-09T08:10:21.737Z,1.63
2019-03-09T08:12:50.210Z,2.40
2019-03-09T08:15:19.646Z,1.40
2019-03-09T08:17:48.344Z,2.07
2019-03-09T08:20:18.037Z,1.10
2019-03-09T08:22:46.655Z,1.60
2019-03-09T08:25:17.519Z,1.40
2019-03-09T08:27:46.180Z,1.57
2019-03-09T08:30:19.834Z,1.50
2019-03-09T08:32:48.492Z,1.57
2019-03-09T08:35:17.807Z,1.80
2019-03-09T08:37:46.676Z,1.43
2019-03-09T08:40:19.341Z,1.50
2019-03-09T08:42:47.803Z,2.30
2019-03-09T08:45:17.996Z,2.03
2019-03-09T08:47:52.196Z,1.40
2019-03-09T08:50:19.044Z,1.57
2019-03-09T08:52:47.749Z,1.40
2019-03-09T08:55:17.983Z,2.00
2019-03-09T08:57:46.799Z,1.73
2019-03-09T09:00:17.785Z,1.80
2019-03-09T09:02:46.245Z,2.67
2019-03-09T09:05:14.694Z,3.43
2019-03-09T09:07:43.184Z,1.50
2019-03-09T09:10:11.782Z,2.40
2019-03-09T09:12:40.253Z,2.00
2019-03-09T09:15:11.642Z,1.70
2019-03-09T09:17:40.112Z,1.60
2019-03-09T09:20:14.421Z,1.57
2019-03-09T09:22:42.890Z,1.70
2019-03-09T09:25:11.888Z,2.13
2019-03-09T09:27:40.354Z,1.57
2019-03-09T09:30:12.041Z,1.47
2019-03-09T09:32:40.593Z,2.40
2019-03-09T09:35:11.698Z,1.77
2019-03-09T09:37:40.600Z,1.40
2019-03-09T09:40:22.797Z,1.53
2019-03-09T09:42:51.688Z,1.17
2019-03-09T09:45:20.281Z,1.37
2019-03-09T09:47:48.760Z,1.30
2019-03-09T09:50:17.752Z,1.53
2019-03-09T09:52:46.237Z,1.47
2019-03-09T09:55:16.320Z,1.60
2019-03-09T09:57:44.798Z,1.63
2019-03-09T10:00:18.805Z,2.00
2019-03-09T10:02:47.264Z,3.17
2019-03-09T10:05:15.912Z,1.40
2019-03-09T10:07:44.448Z,1.20
2019-03-09T10:10:18.163Z,1.77
2019-03-09T10:12:46.624Z,1.30
2019-03-09T10:15:17.236Z,1.30
2019-03-09T10:17:45.787Z,1.47
2019-03-09T10:20:14.380Z,1.43
2019-03-09T10:22:42.855Z,1.00
2019-03-09T10:25:11.980Z,1.43
2019-03-09T10:27:40.446Z,2.53
2019-03-09T10:30:17.311Z,1.10
2019-03-09T10:32:45.922Z,1.20
2019-03-09T10:35:14.547Z,1.07
2019-03-09T10:37:42.989Z,1.27
2019-03-09T10:40:13.300Z,1.10
2019-03-09T10:42:41.972Z,1.10
2019-03-09T10:45:13.137Z,1.13
2019-03-09T10:47:41.680Z,1.07
2019-03-09T10:50:14.608Z,1.40
2019-03-09T10:52:43.324Z,1.77
2019-03-09T10:55:17.521Z,1.30
2019-03-09T10:57:46.205Z,1.47
2019-03-09T11:00:23.654Z,2.27
2019-03-09T11:02:52.123Z,1.10
2019-03-09T11:05:20.654Z,1.53
2019-03-09T11:07:49.275Z,1.23
2019-03-09T11:10:17.817Z,1.03
2019-03-09T11:12:47.270Z,1.70
2019-03-09T11:15:16.656Z,0.90
2019-03-09T11:17:45.140Z,1.40
2019-03-09T11:20:20.790Z,1.67
2019-03-09T11:22:49.272Z,1.20
2019-03-09T11:25:17.798Z,0.97
2019-03-09T11:27:46.285Z,1.00
2019-03-09T11:30:28.219Z,1.27
2019-03-09T11:32:56.928Z,1.27
2019-03-09T11:35:25.385Z,1.20
2019-03-09T11:37:53.852Z,1.10
2019-03-09T11:40:22.392Z,2.07
2019-03-09T11:42:51.086Z,1.23
2019-03-09T11:45:20.206Z,1.30
2019-03-09T11:47:48.664Z,1.20
2019-03-09T11:50:17.476Z,1.70
2019-03-09T11:52:46.498Z,1.13
2019-03-09T11:55:16.495Z,1.10
2019-03-09T11:57:45.209Z,1.30
2019-03-09T12:00:26.200Z,1.50
2019-03-09T12:02:54.741Z,2.77
2019-03-09T12:05:23.221Z,1.13
2019-03-09T12:07:54.558Z,1.40
2019-03-09T12:10:23.035Z,1.20
2019-03-09T12:12:51.665Z,1.13
2019-03-09T12:15:20.282Z,1.40
2019-03-09T12:17:50.498Z,1.60
2019-03-09T12:20:20.716Z,1.40
2019-03-09T12:22:49.253Z,1.23
2019-03-09T12:25:18.293Z,1.50
2019-03-09T12:27:47.079Z,1.40
2019-03-09T12:30:17.566Z,1.40
2019-03-09T12:32:46.186Z,1.37
2019-03-09T12:35:15.135Z,2.30
2019-03-09T12:37:44.024Z,1.30
2019-03-09T12:40:19.914Z,1.40
2019-03-09T12:42:48.621Z,1.17
2019-03-09T12:45:17.580Z,1.20
2019-03-09T12:47:46.109Z,1.50
2019-03-09T12:50:19.500Z,1.10
2019-03-09T12:52:48.023Z,1.40
2019-03-09T12:55:16.465Z,1.57
2019-03-09T12:57:45.028Z,1.13
2019-03-09T13:00:21.767Z,1.50
2019-03-09T13:02:50.313Z,1.27
2019-03-09T13:05:19.008Z,1.43
2019-03-09T13:07:47.645Z,1.60
2019-03-09T13:10:16.788Z,1.40
2019-03-09T13:12:45.856Z,1.93
2019-03-09T13:15:15.845Z,1.60
2019-03-09T13:17:44.439Z,1.83
2019-03-09T13:20:15.344Z,1.53
2019-03-09T13:22:43.827Z,1.67
2019-03-09T13:25:12.750Z,1.47
2019-03-09T13:27:41.346Z,2.33
2019-03-09T13:30:13.242Z,1.70
2019-03-09T13:32:41.775Z,1.50
2019-03-09T13:35:10.327Z,1.17
2019-03-09T13:37:38.855Z,1.60
2019-03-09T13:40:09.717Z,1.93
2019-03-09T13:42:38.206Z,1.90
2019-03-09T13:45:09.622Z,1.23
2019-03-09T13:47:38.198Z,1.60
2019-03-09T13:50:09.628Z,1.90
2019-03-09T13:52:38.120Z,1.70
2019-03-09T13:55:08.114Z,1.40
2019-03-09T13:57:36.667Z,1.93
2019-03-09T14:00:15.888Z,1.40
2019-03-09T14:02:44.514Z,2.20
2019-03-09T14:05:13.038Z,1.57
2019-03-09T14:07:41.518Z,1.60
2019-03-09T14:10:14.244Z,2.37
2019-03-09T14:12:42.738Z,2.20
2019-03-09T14:15:17.741Z,2.13
2019-03-09T14:17:46.279Z,1.60
2019-03-09T14:20:17.480Z,1.33
2019-03-09T14:22:46.032Z,1.63
2019-03-09T14:25:15.617Z,1.43
2019-03-09T14:27:44.256Z,1.40
2019-03-09T14:30:17.678Z,1.50
2019-03-09T14:32:46.202Z,1.57
2019-03-09T14:35:15.122Z,1.27
2019-03-09T14:37:43.714Z,1.50
2019-03-09T14:40:15.733Z,1.40
2019-03-09T14:42:44.535Z,2.60
2019-03-09T14:45:21.346Z,1.60
2019-03-09T14:47:49.811Z,1.43
2019-03-09T14:50:18.424Z,1.03
2019-03-09T14:52:46.942Z,1.50
2019-03-09T14:55:15.556Z,1.37
2019-03-09T14:57:44.098Z,1.10
2019-03-09T15:00:26.064Z,0.90
2019-03-09T15:02:54.601Z,0.90
2019-03-09T15:05:23.124Z,1.63
2019-03-09T15:07:51.679Z,1.10
2019-03-09T15:10:20.139Z,0.70
2019-03-09T15:12:48.642Z,0.70
2019-03-09T15:15:18.511Z,0.80
2019-03-09T15:17:47.198Z,1.00
2019-03-09T15:20:16.588Z,0.77
2019-03-09T15:22:45.244Z,0.70
2019-03-09T15:25:15.748Z,1.27
2019-03-09T15:27:44.281Z,0.80
2019-03-09T15:30:17.525Z,0.80
2019-03-09T15:32:46.087Z,0.80
2019-03-09T15:35:15.980Z,0.87
2019-03-09T15:37:44.671Z,1.43
2019-03-09T15:40:17.828Z,0.83
2019-03-09T15:42:46.449Z,2.17
2019-03-09T15:45:16.337Z,0.80
2019-03-09T15:47:44.884Z,0.90
2019-03-09T15:50:15.103Z,0.80
2019-03-09T15:52:43.653Z,0.90
2019-03-09T15:55:12.432Z,1.00
2019-03-09T15:57:41.049Z,0.87
2019-03-09T16:00:12.436Z,0.80
2019-03-09T16:02:40.886Z,0.83
2019-03-09T16:05:09.506Z,0.90
2019-03-09T16:07:37.956Z,1.00
2019-03-09T16:10:12.496Z,0.90
2019-03-09T16:12:40.953Z,1.73
2019-03-09T16:15:11.972Z,1.20
2019-03-09T16:17:40.500Z,0.90
2019-03-09T16:20:14.238Z,1.10
2019-03-09T16:22:42.864Z,1.17
2019-03-09T16:25:11.464Z,1.17
2019-03-09T16:27:40.065Z,0.90
2019-03-09T16:30:19.570Z,1.00
2019-03-09T16:32:48.096Z,1.30
2019-03-09T16:35:16.655Z,1.00
2019-03-09T16:37:46.145Z,1.13
2019-03-09T16:40:21.857Z,1.30
2019-03-09T16:42:50.322Z,1.67
2019-03-09T16:45:18.898Z,0.90
2019-03-09T16:47:47.380Z,1.30
2019-03-09T16:50:16.872Z,0.93
2019-03-09T16:52:45.519Z,1.00
2019-03-09T16:55:14.107Z,0.93
2019-03-09T16:57:42.670Z,1.13
2019-03-09T17:00:18.519Z,0.97
2019-03-09T17:02:47.144Z,0.97
2019-03-09T17:05:15.839Z,0.93
2019-03-09T17:07:44.375Z,1.00
2019-03-09T17:10:14.847Z,1.77
2019-03-09T17:12:43.463Z,1.83
2019-03-09T17:15:17.557Z,1.00
2019-03-09T17:17:46.385Z,1.63
2019-03-09T17:20:16.301Z,1.30
2019-03-09T17:22:44.785Z,1.40
2019-03-09T17:25:14.845Z,1.50
2019-03-09T17:27:43.511Z,1.03
2019-03-09T17:30:14.594Z,3.17
2019-03-09T17:32:43.119Z,1.20
2019-03-09T17:35:11.673Z,1.47
2019-03-09T17:37:40.139Z,1.20
2019-03-09T17:40:10.987Z,1.40
2019-03-09T17:42:39.675Z,1.10
2019-03-09T17:45:11.250Z,1.10
2019-03-09T17:47:39.827Z,1.40
2019-03-09T17:50:10.933Z,1.83
2019-03-09T17:52:39.467Z,1.50
2019-03-09T17:55:11.794Z,1.53
2019-03-09T17:57:40.285Z,1.30
2019-03-09T18:00:23.226Z,1.50
2019-03-09T18:02:51.848Z,1.93
2019-03-09T18:05:20.437Z,1.80
2019-03-09T18:07:48.919Z,1.40
2019-03-09T18:10:26.223Z,1.67
2019-03-09T18:12:54.793Z,3.03
2019-03-09T18:15:23.981Z,1.47
2019-03-09T18:17:52.503Z,2.17
2019-03-09T18:20:20.987Z,1.40
2019-03-09T18:22:49.476Z,2.57
2019-03-09T18:25:17.945Z,1.60
2019-03-09T18:27:46.499Z,1.50
2019-03-09T18:30:15.096Z,1.90
2019-03-09T18:32:43.616Z,1.27
2019-03-09T18:35:12.483Z,1.60
2019-03-09T18:37:41.047Z,2.43
2019-03-09T18:40:12.336Z,1.73
2019-03-09T18:42:40.889Z,1.63
2019-03-09T18:45:17.466Z,2.10
2019-03-09T18:47:45.962Z,3.27
2019-03-09T18:50:14.784Z,3.33
2019-03-09T18:52:43.331Z,1.60
2019-03-09T18:55:12.025Z,4.00
2019-03-09T18:57:40.719Z,1.90
2019-03-09T19:00:15.561Z,2.33
2019-03-09T19:02:44.259Z,2.30
2019-03-09T19:05:12.803Z,2.73
2019-03-09T19:07:41.413Z,1.93
2019-03-09T19:10:15.054Z,1.77
2019-03-09T19:12:43.509Z,1.97
2019-03-09T19:15:16.785Z,4.17
2019-03-09T19:17:45.366Z,3.33
2019-03-09T19:20:16.256Z,3.20
2019-03-09T19:22:44.713Z,5.40
2019-03-09T19:25:16.384Z,3.57
2019-03-09T19:27:44.921Z,2.30
2019-03-09T19:30:19.369Z,2.43
2019-03-09T19:32:47.865Z,3.17
2019-03-09T19:35:16.469Z,3.93
2019-03-09T19:37:45.084Z,2.77
2019-03-09T19:40:20.532Z,5.03
2019-03-09T19:42:49.101Z,2.83
2019-03-09T19:45:19.727Z,2.90
2019-03-09T19:47:48.197Z,2.30
2019-03-09T19:50:23.673Z,2.20
2019-03-09T19:52:52.205Z,2.60
2019-03-09T19:55:20.770Z,2.83
2019-03-09T19:57:49.249Z,2.30
2019-03-09T20:00:18.950Z,4.17
2019-03-09T20:02:47.474Z,4.20
2019-03-09T20:05:16.093Z,5.80
2019-03-09T20:07:44.634Z,3.70
2019-03-09T20:10:16.258Z,2.70
2019-03-09T20:12:44.790Z,4.67
2019-03-09T20:15:17.814Z,5.33
2019-03-09T20:17:46.281Z,3.77
2019-03-09T20:20:19.281Z,3.10
2019-03-09T20:22:47.894Z,4.40
2019-03-09T20:25:16.512Z,6.67
2019-03-09T20:27:45.061Z,4.60
2019-03-09T20:30:18.457Z,2.07
2019-03-09T20:32:46.936Z,4.23
2019-03-09T20:35:15.637Z,4.73
2019-03-09T20:37:44.108Z,2.60
2019-03-09T20:40:14.506Z,2.57
2019-03-09T20:42:42.988Z,4.87
2019-03-09T20:45:15.748Z,3.80
2019-03-09T20:47:44.382Z,3.07
2019-03-09T20:50:15.666Z,2.80
2019-03-09T20:52:44.198Z,5.63
2019-03-09T20:55:12.988Z,3.73
2019-03-09T20:57:41.506Z,4.47
2019-03-09T21:00:12.890Z,5.60
2019-03-09T21:02:41.533Z,3.60
2019-03-09T21:05:09.988Z,4.97
2019-03-09T21:07:38.467Z,3.00
2019-03-09T21:10:10.319Z,3.80
2019-03-09T21:12:41.945Z,2.97
2019-03-09T21:15:10.665Z,4.77
2019-03-09T21:17:39.218Z,3.13
2019-03-09T21:20:07.804Z,4.10
2019-03-09T21:22:36.281Z,3.63
2019-03-09T21:25:05.364Z,3.90
2019-03-09T21:27:33.824Z,3.77
2019-03-09T21:30:02.297Z,3.77
2019-03-09T21:32:30.921Z,5.23
2019-03-09T21:34:59.409Z,3.33
2019-03-09T21:37:27.870Z,2.90
2019-03-09T21:39:56.368Z,3.67
2019-03-09T21:42:24.840Z,3.97
2019-03-09T21:44:53.472Z,5.50
2019-03-09T21:47:21.928Z,4.93
2019-03-09T21:49:50.401Z,5.17
2019-03-09T21:52:18.873Z,5.77
2019-03-09T21:54:47.418Z,6.07
2019-03-09T21:57:15.899Z,2.73
2019-03-09T21:59:44.384Z,6.17
2019-03-09T22:02:12.910Z,3.43
2019-03-09T22:04:41.424Z,4.87
2019-03-09T22:07:09.976Z,5.00
2019-03-09T22:09:38.429Z,6.47
2019-03-09T22:12:06.923Z,4.67
2019-03-09T22:14:35.380Z,5.93
2019-03-09T22:17:03.829Z,4.70
2019-03-09T22:19:32.313Z,7.53
2019-03-09T22:22:00.788Z,7.47
2019-03-09T22:24:29.249Z,3.80
2019-03-09T22:26:57.999Z,6.57
2019-03-09T22:29:26.469Z,5.57
2019-03-09T22:31:54.957Z,6.73
2019-03-09T22:34:23.552Z,6.73
2019-03-09T22:36:52.041Z,4.53
2019-03-09T22:39:20.490Z,5.07
2019-03-09T22:41:49.147Z,4.80
2019-03-09T22:44:18.611Z,4.27
2019-03-09T22:46:47.241Z,3.93
2019-03-09T22:49:17.280Z,7.17
2019-03-09T22:51:45.795Z,5.40
2019-03-09T22:54:16.383Z,4.93
2019-03-09T22:56:44.640Z,6.30
2019-03-09T22:59:13.205Z,3.47
2019-03-09T23:01:41.719Z,5.40
2019-03-09T23:04:10.235Z,6.83
2019-03-09T23:06:38.679Z,8.07
2019-03-09T23:09:07.511Z,5.63
2019-03-09T23:11:36.039Z,5.63
2019-03-09T23:14:04.571Z,5.30
2019-03-09T23:16:33.056Z,6.63
2019-03-09T23:19:01.550Z,3.63
2019-03-09T23:21:30.064Z,5.50
2019-03-09T23:23:58.547Z,7.63
2019-03-09T23:26:27.339Z,4.10
2019-03-09T23:28:55.858Z,6.93
2019-03-09T23:31:24.721Z,8.63
2019-03-09T23:33:53.316Z,3.77
2019-03-09T23:36:21.858Z,4.07
2019-03-09T23:38:50.393Z,3.47
2019-03-09T23:41:18.871Z,5.53
2019-03-09T23:43:47.349Z,4.53
2019-03-09T23:46:15.895Z,6.20
2019-03-09T23:48:44.437Z,4.47
2019-03-09T23:51:12.995Z,5.17
2019-03-09T23:53:42.129Z,5.53
2019-03-09T23:56:10.745Z,5.70
2019-03-09T23:58:39.259Z,4.30
